Time;durP1;ratioP1;P1;durP2;ratioP2;P2;SDS_P1;SDS_P2;PMS_P1;PMS_P2;Temp;Humidity;BMP_temperature;BMP_pressure;BME280_temperature;BME280_humidity;BME280_pressure;Samples;Min_cycle;Max_cycle;Signal;HPM_P1;HPM_P2
2023/09/07 00:01:16;;;;;;;7.22;4.07;;;19.70;99.90;;;;;;5012514;28;20120;-79
2023/09/07 00:03:41;;;;;;;7.15;3.60;;;19.70;99.90;;;;;;5014314;28;20042;-79
2023/09/07 00:06:09;;;;;;;7.80;3.97;;;19.70;99.90;;;;;;4996792;28;20096;-79
2023/09/07 00:08:35;;;;;;;8.60;3.85;;;19.70;99.90;;;;;;5013312;28;20037;-79
2023/09/07 00:11:07;;;;;;;6.55;3.80;;;19.70;99.90;;;;;;4996605;28;20057;-79
2023/09/07 00:13:33;;;;;;;9.18;4.20;;;19.70;99.90;;;;;;5013578;28;20073;-79
2023/09/07 00:16:00;;;;;;;8.77;3.97;;;19.70;99.90;;;;;;4996497;28;20088;-79
2023/09/07 00:18:26;;;;;;;8.40;4.78;;;19.70;99.90;;;;;;5014154;28;20122;-79
2023/09/07 00:20:52;;;;;;;6.20;3.60;;;19.60;99.90;;;;;;4996363;28;20053;-79
2023/09/07 00:23:19;;;;;;;8.63;3.80;;;19.60;99.90;;;;;;5011976;28;20042;-79
2023/09/07 00:25:45;;;;;;;7.05;4.50;;;19.60;99.90;;;;;;5014071;28;20049;-79
2023/09/07 00:28:11;;;;;;;7.35;4.05;;;19.60;99.90;;;;;;4996590;28;20038;-79
2023/09/07 00:30:36;;;;;;;7.85;4.45;;;19.60;99.90;;;;;;5012657;28;20040;-79
2023/09/07 00:33:02;;;;;;;8.88;4.45;;;19.50;99.90;;;;;;5011637;28;20217;-78
2023/09/07 00:35:28;;;;;;;7.18;4.35;;;19.50;99.90;;;;;;5013775;28;20046;-79
2023/09/07 00:37:54;;;;;;;7.45;4.40;;;19.50;99.90;;;;;;4996273;28;20041;-79
2023/09/07 00:40:20;;;;;;;7.45;3.80;;;19.50;99.90;;;;;;4996031;28;20052;-78
2023/09/07 00:42:45;;;;;;;8.55;4.90;;;19.50;99.90;;;;;;4995234;28;20124;-78
2023/09/07 00:45:11;;;;;;;7.25;4.07;;;19.50;99.90;;;;;;5012362;28;20038;-78
2023/09/07 00:47:37;;;;;;;7.90;4.20;;;19.40;99.90;;;;;;5013685;28;20044;-79
2023/09/07 00:50:06;;;;;;;8.10;4.78;;;19.40;99.90;;;;;;5013526;28;20046;-79
2023/09/07 00:52:33;;;;;;;8.10;3.97;;;19.40;99.90;;;;;;4995564;28;20041;-79
2023/09/07 00:55:01;;;;;;;8.07;4.70;;;19.30;99.90;;;;;;5013652;28;20060;-79
2023/09/07 00:57:26;;;;;;;6.32;4.20;;;19.30;99.90;;;;;;4995413;28;20505;-78
2023/09/07 00:59:52;;;;;;;7.15;3.97;;;19.30;99.90;;;;;;4996025;28;20042;-78
2023/09/07 01:02:18;;;;;;;6.45;4.28;;;19.30;99.90;;;;;;4995302;28;20469;-79
2023/09/07 01:04:43;;;;;;;6.78;4.20;;;19.20;99.90;;;;;;5013415;28;20046;-78
2023/09/07 01:07:17;;;;;;;7.32;4.05;;;19.20;99.90;;;;;;5012131;28;20487;-79
2023/09/07 01:09:44;;;;;;;6.97;3.70;;;19.20;99.90;;;;;;5013586;28;20046;-78
2023/09/07 01:12:16;;;;;;;6.45;3.45;;;19.10;99.90;;;;;;4995144;28;20157;-78
2023/09/07 01:14:43;;;;;;;7.30;4.03;;;19.10;99.90;;;;;;5013383;28;20060;-79
2023/09/07 01:17:09;;;;;;;7.15;3.92;;;19.10;99.90;;;;;;4995598;28;20042;-78
2023/09/07 01:19:34;;;;;;;7.00;4.07;;;19.20;99.90;;;;;;5011953;28;20045;-78
2023/09/07 01:22:01;;;;;;;6.82;3.85;;;19.00;99.90;;;;;;5015560;28;20049;-79
2023/09/07 01:24:29;;;;;;;6.40;3.60;;;18.90;99.90;;;;;;5017542;28;20117;-79
2023/09/07 01:27:00;;;;;;;7.28;4.10;;;19.00;99.90;;;;;;4999759;28;20074;-79
2023/09/07 01:29:29;;;;;;;8.65;3.95;;;18.90;99.90;;;;;;4998329;28;20038;-78
2023/09/07 01:31:55;;;;;;;8.13;4.43;;;18.90;99.90;;;;;;5016402;28;20046;-78
2023/09/07 01:34:20;;;;;;;7.80;3.80;;;18.80;99.90;;;;;;4999469;28;20050;-78
2023/09/07 01:36:46;;;;;;;6.15;3.22;;;18.80;99.90;;;;;;5016548;28;20038;-77
2023/09/07 01:39:11;;;;;;;7.68;3.95;;;18.90;99.90;;;;;;4999470;28;20046;-78
2023/09/07 01:41:37;;;;;;;8.52;4.20;;;18.80;99.90;;;;;;4999367;28;20041;-77
2023/09/07 01:44:03;;;;;;;6.60;4.25;;;18.80;99.90;;;;;;4998634;28;20050;-77
2023/09/07 01:46:28;;;;;;;9.15;5.28;;;18.80;99.90;;;;;;5016828;28;20042;-77
2023/09/07 01:48:54;;;;;;;7.50;4.22;;;18.80;99.90;;;;;;5006444;28;20553;-77
2023/09/07 01:51:19;;;;;;;6.75;3.75;;;18.70;99.90;;;;;;4995865;28;20121;-77
2023/09/07 01:53:48;;;;;;;6.70;4.30;;;18.70;99.90;;;;;;5014688;28;20072;-77
2023/09/07 01:56:15;;;;;;;6.55;4.20;;;18.70;99.90;;;;;;4998517;28;20540;-77
2023/09/07 01:58:40;;;;;;;7.72;3.88;;;18.70;99.90;;;;;;5009142;28;20034;-77
2023/09/07 02:01:06;;;;;;;6.55;3.83;;;18.70;99.90;;;;;;5000634;28;20117;-77
2023/09/07 02:03:32;;;;;;;7.88;4.28;;;18.70;99.90;;;;;;4993205;28;20038;-77
2023/09/07 02:05:57;;;;;;;8.05;4.05;;;18.60;99.90;;;;;;4998955;28;20084;-77
2023/09/07 02:08:23;;;;;;;7.82;3.90;;;18.60;99.90;;;;;;5016451;28;20462;-76
2023/09/07 02:10:48;;;;;;;6.00;3.20;;;18.60;99.90;;;;;;4982769;28;20048;-76
2023/09/07 02:13:14;;;;;;;5.25;3.00;;;18.60;99.90;;;;;;4998667;28;20402;-77
2023/09/07 02:15:40;;;;;;;7.40;3.85;;;18.50;99.90;;;;;;4998817;28;20034;-77
2023/09/07 02:18:06;;;;;;;5.80;3.63;;;18.50;99.90;;;;;;5016470;28;20084;-77
2023/09/07 02:20:34;;;;;;;7.35;3.90;;;18.50;99.90;;;;;;5016473;28;20038;-77
2023/09/07 02:23:00;;;;;;;6.20;3.75;;;18.40;99.90;;;;;;4982342;28;20092;-78
2023/09/07 02:25:27;;;;;;;6.05;3.55;;;18.40;99.90;;;;;;5016274;28;20044;-78
2023/09/07 02:27:53;;;;;;;6.00;3.38;;;18.40;99.90;;;;;;4998619;28;20409;-78
2023/09/07 02:30:18;;;;;;;7.80;3.33;;;18.40;99.90;;;;;;4998273;28;20045;-77
2023/09/07 02:32:44;;;;;;;6.72;3.47;;;18.30;99.90;;;;;;5015634;28;20057;-77
2023/09/07 02:35:10;;;;;;;7.88;3.75;;;18.20;99.90;;;;;;4998481;28;20453;-77
2023/09/07 02:37:36;;;;;;;6.53;3.70;;;18.20;99.90;;;;;;5016058;28;20048;-77
2023/09/07 02:40:06;;;;;;;6.72;3.75;;;18.20;99.90;;;;;;5016063;28;20092;-77
2023/09/07 02:42:32;;;;;;;6.38;3.63;;;18.10;99.90;;;;;;4998578;28;20414;-77
2023/09/07 02:44:57;;;;;;;5.90;3.50;;;18.00;99.90;;;;;;5015824;28;20042;-78
2023/09/07 02:47:23;;;;;;;7.97;3.40;;;18.00;99.90;;;;;;5015659;28;20556;-78
2023/09/07 02:49:48;;;;;;;6.53;4.05;;;17.90;99.90;;;;;;4982116;28;20037;-77
2023/09/07 02:52:14;;;;;;;7.32;4.22;;;17.90;99.90;;;;;;5015619;28;20160;-77
2023/09/07 02:54:41;;;;;;;6.32;3.47;;;17.90;99.90;;;;;;5015675;28;20069;-77
2023/09/07 02:57:07;;;;;;;8.80;4.05;;;17.90;99.90;;;;;;5015599;28;20046;-76
2023/09/07 02:59:32;;;;;;;6.55;4.07;;;17.90;99.90;;;;;;4998141;28;20052;-77
2023/09/07 03:01:58;;;;;;;6.47;3.88;;;17.80;99.90;;;;;;5015482;28;20042;-77
2023/09/07 03:04:23;;;;;;;7.38;4.10;;;17.80;99.90;;;;;;4997724;28;20068;-77
2023/09/07 03:06:49;;;;;;;7.38;4.13;;;17.80;99.90;;;;;;5015524;28;20096;-77
2023/09/07 03:09:15;;;;;;;7.28;4.68;;;17.70;99.90;;;;;;5015454;28;20084;-76
2023/09/07 03:11:40;;;;;;;7.80;4.28;;;17.70;99.90;;;;;;5015357;28;20034;-77
2023/09/07 03:14:06;;;;;;;6.53;3.70;;;17.70;99.90;;;;;;4997622;28;20041;-77
2023/09/07 03:16:31;;;;;;;6.80;4.00;;;17.70;99.90;;;;;;5015408;28;20065;-77
2023/09/07 03:18:57;;;;;;;6.85;4.00;;;17.60;99.90;;;;;;5015373;28;20478;-77
2023/09/07 03:21:28;;;;;;;7.97;4.70;;;17.60;99.90;;;;;;5014978;28;20429;-77
2023/09/07 03:23:55;;;;;;;8.00;4.25;;;17.50;99.90;;;;;;5016629;28;20041;-77
2023/09/07 03:26:21;;;;;;;7.53;4.13;;;17.40;99.90;;;;;;5015418;28;20068;-76
2023/09/07 03:28:46;;;;;;;8.27;4.05;;;17.40;99.90;;;;;;5017840;28;20034;-77
2023/09/07 03:31:12;;;;;;;6.85;4.18;;;17.40;99.90;;;;;;5015128;28;20049;-76
2023/09/07 03:33:37;;;;;;;7.97;4.43;;;17.40;99.90;;;;;;5014527;28;20056;-77
2023/09/07 03:36:03;;;;;;;8.20;4.60;;;17.40;99.90;;;;;;5015025;28;20057;-77
2023/09/07 03:38:29;;;;;;;8.23;4.35;;;17.30;99.90;;;;;;5014735;28;20445;-77
2023/09/07 03:40:55;;;;;;;7.65;4.45;;;17.30;99.90;;;;;;4997128;28;20072;-77
2023/09/07 03:43:21;;;;;;;7.30;4.30;;;17.30;99.90;;;;;;5017169;28;20038;-77
2023/09/07 03:45:46;;;;;;;6.28;4.20;;;17.30;99.90;;;;;;5017756;28;20061;-77
2023/09/07 03:48:12;;;;;;;8.88;5.35;;;17.30;99.90;;;;;;5014725;28;20383;-77
2023/09/07 03:50:38;;;;;;;8.02;4.80;;;17.20;99.90;;;;;;5014618;28;20116;-77
2023/09/07 03:53:03;;;;;;;7.50;4.75;;;17.20;99.90;;;;;;4996844;28;20128;-77
2023/09/07 03:55:29;;;;;;;7.43;4.47;;;17.20;99.90;;;;;;4996742;28;20096;-77
2023/09/07 03:57:54;;;;;;;8.20;4.70;;;17.10;99.90;;;;;;5014443;28;20100;-77
2023/09/07 04:00:20;;;;;;;8.02;4.72;;;17.10;99.90;;;;;;5014683;28;20103;-77
2023/09/07 04:02:46;;;;;;;6.93;4.43;;;17.10;99.90;;;;;;5014336;28;20042;-77
2023/09/07 04:05:11;;;;;;;7.32;4.90;;;17.10;99.90;;;;;;5014438;28;20048;-77
2023/09/07 04:07:38;;;;;;;9.75;5.07;;;17.00;99.90;;;;;;4996699;28;20034;-77
2023/09/07 04:10:04;;;;;;;8.80;5.15;;;17.00;99.90;;;;;;4996557;28;20513;-77
2023/09/07 04:12:30;;;;;;;8.43;4.78;;;16.90;99.90;;;;;;5014189;28;20402;-77
2023/09/07 04:14:55;;;;;;;8.10;4.70;;;16.90;99.90;;;;;;5014361;28;20045;-78
2023/09/07 04:17:21;;;;;;;7.80;4.25;;;16.90;99.90;;;;;;5014294;28;20042;-76
2023/09/07 04:19:46;;;;;;;7.53;4.60;;;16.90;99.90;;;;;;5014152;28;20046;-77
2023/09/07 04:22:12;;;;;;;8.07;5.13;;;16.80;99.90;;;;;;4996522;28;20041;-77
2023/09/07 04:24:38;;;;;;;9.48;4.95;;;16.80;99.90;;;;;;5013909;28;20169;-77
2023/09/07 04:27:04;;;;;;;8.73;4.40;;;16.80;99.90;;;;;;4996398;28;20049;-77
2023/09/07 04:29:30;;;;;;;7.18;4.20;;;16.90;99.90;;;;;;5013957;28;20462;-77
2023/09/07 04:31:55;;;;;;;7.90;3.45;;;16.90;99.90;;;;;;5014044;28;20137;-77
2023/09/07 04:34:22;;;;;;;6.05;3.63;;;16.90;99.90;;;;;;5012504;28;20533;-77
2023/09/07 04:36:47;;;;;;;5.38;2.70;;;16.90;99.90;;;;;;5013775;28;20049;-77
2023/09/07 04:39:14;;;;;;;5.05;2.50;;;16.90;99.90;;;;;;4996106;28;20050;-77
2023/09/07 04:41:40;;;;;;;6.85;2.55;;;16.80;99.90;;;;;;5013810;28;20450;-77
2023/09/07 04:44:05;;;;;;;5.57;3.10;;;16.80;99.90;;;;;;4996119;28;20124;-77
2023/09/07 04:46:31;;;;;;;5.30;2.53;;;16.80;99.90;;;;;;4995873;28;20124;-77
2023/09/07 04:48:56;;;;;;;5.47;2.33;;;16.80;99.90;;;;;;5014941;28;20030;-77
2023/09/07 04:51:23;;;;;;;4.28;2.22;;;16.80;99.90;;;;;;5014731;28;20044;-77
2023/09/07 04:53:49;;;;;;;4.47;2.28;;;16.80;99.90;;;;;;5013467;28;20061;-77
2023/09/07 04:56:16;;;;;;;5.05;2.45;;;16.80;99.90;;;;;;5013381;28;20041;-77
2023/09/07 04:58:41;;;;;;;4.40;2.50;;;16.80;99.90;;;;;;5013799;28;20054;-78
2023/09/07 05:01:09;;;;;;;5.45;2.92;;;16.70;99.90;;;;;;4996119;28;20042;-77
2023/09/07 05:03:35;;;;;;;5.90;3.10;;;16.70;99.90;;;;;;4995608;28;20045;-77
2023/09/07 05:06:02;;;;;;;7.25;3.83;;;16.60;99.90;;;;;;5013431;28;20483;-77
2023/09/07 05:08:28;;;;;;;7.38;4.30;;;16.60;99.90;;;;;;4995676;28;20048;-77
2023/09/07 05:10:59;;;;;;;7.80;4.30;;;16.60;99.90;;;;;;5013540;28;20042;-77
2023/09/07 05:13:25;;;;;;;7.68;3.85;;;16.50;99.90;;;;;;5013385;28;20049;-77
2023/09/07 05:15:53;;;;;;;6.57;4.20;;;16.50;99.90;;;;;;5013247;28;20504;-78
2023/09/07 05:18:19;;;;;;;8.70;4.82;;;16.50;99.90;;;;;;5013208;28;20038;-77
2023/09/07 05:20:45;;;;;;;7.47;3.83;;;16.50;99.90;;;;;;5013373;28;20037;-77
2023/09/07 05:23:15;;;;;;;6.82;3.92;;;16.50;99.90;;;;;;4995792;28;20117;-77
2023/09/07 05:25:45;;;;;;;6.55;4.13;;;16.40;99.90;;;;;;4995844;28;20050;-77
2023/09/07 05:28:12;;;;;;;7.60;4.18;;;16.50;99.90;;;;;;4979338;28;20121;-77
2023/09/07 05:30:38;;;;;;;7.75;4.65;;;16.50;99.90;;;;;;5013164;28;20487;-78
2023/09/07 05:33:03;;;;;;;6.90;4.05;;;16.50;99.90;;;;;;5012996;28;20046;-77
2023/09/07 05:35:32;;;;;;;7.38;4.25;;;16.50;99.90;;;;;;5012857;28;20127;-77
2023/09/07 05:37:58;;;;;;;7.13;4.65;;;16.40;99.90;;;;;;5013339;28;20426;-77
2023/09/07 05:40:24;;;;;;;8.82;5.05;;;16.50;99.90;;;;;;4995419;28;20042;-77
2023/09/07 05:42:49;;;;;;;8.00;5.30;;;16.50;99.90;;;;;;4995491;28;20041;-77
2023/09/07 05:45:15;;;;;;;7.43;5.00;;;16.50;99.90;;;;;;4983033;28;20053;-78
2023/09/07 05:47:40;;;;;;;8.90;5.38;;;16.50;99.90;;;;;;4981893;28;20048;-78
2023/09/07 05:50:06;;;;;;;7.28;4.78;;;16.50;99.90;;;;;;5011259;28;20040;-78
2023/09/07 05:52:32;;;;;;;6.25;3.60;;;16.50;99.90;;;;;;5007840;28;20046;-78
2023/09/07 05:54:57;;;;;;;5.55;3.03;;;16.60;99.90;;;;;;5010280;28;20034;-78
2023/09/07 05:57:23;;;;;;;5.45;3.20;;;16.60;99.90;;;;;;5011394;28;20044;-78
2023/09/07 05:59:48;;;;;;;6.85;3.50;;;16.60;99.90;;;;;;5009949;28;20049;-79
2023/09/07 06:02:14;;;;;;;6.32;3.60;;;16.60;99.90;;;;;;4992450;28;20070;-78
2023/09/07 06:04:40;;;;;;;7.03;4.10;;;16.60;99.90;;;;;;5006432;28;20034;-78
2023/09/07 06:07:05;;;;;;;9.90;4.75;;;16.60;99.90;;;;;;5013686;28;20038;-79
2023/09/07 06:09:31;;;;;;;12.32;6.88;;;16.60;99.90;;;;;;4996271;28;20124;-79
2023/09/07 06:11:56;;;;;;;9.88;6.60;;;16.70;99.90;;;;;;5014106;28;20406;-79
2023/09/07 06:14:22;;;;;;;8.88;6.63;;;16.70;99.90;;;;;;4996673;28;20040;-79
2023/09/07 06:16:48;;;;;;;7.97;5.63;;;16.80;99.90;;;;;;5011079;28;21977;-79
2023/09/07 06:19:13;;;;;;;7.53;4.97;;;16.80;99.90;;;;;;5012879;28;20133;-79
2023/09/07 06:21:39;;;;;;;8.25;4.90;;;16.90;99.90;;;;;;4981496;28;20036;-79
2023/09/07 06:24:06;;;;;;;8.80;5.20;;;16.90;99.90;;;;;;4995679;28;20041;-79
2023/09/07 06:26:32;;;;;;;9.23;5.35;;;16.90;99.90;;;;;;5014894;28;20487;-79
2023/09/07 06:28:57;;;;;;;9.27;5.82;;;17.00;99.90;;;;;;4980261;28;20080;-80
2023/09/07 06:31:23;;;;;;;8.93;6.30;;;17.00;99.90;;;;;;4981076;28;20498;-80
2023/09/07 06:33:48;;;;;;;10.02;7.25;;;17.10;99.90;;;;;;4996767;28;20042;-80
2023/09/07 06:36:14;;;;;;;8.52;6.38;;;17.20;99.90;;;;;;4997150;28;20050;-80
2023/09/07 06:38:40;;;;;;;11.52;7.75;;;17.30;99.90;;;;;;4996835;28;20046;-81
2023/09/07 06:41:07;;;;;;;11.32;7.50;;;17.40;99.90;;;;;;4996652;28;20042;-80
2023/09/07 06:43:33;;;;;;;11.02;7.60;;;17.50;99.90;;;;;;4996548;28;20133;-80
2023/09/07 06:46:06;;;;;;;8.57;6.47;;;17.60;99.90;;;;;;4997147;28;20153;-80
2023/09/07 06:48:32;;;;;;;10.13;7.22;;;17.60;99.90;;;;;;4980764;28;20501;-80
2023/09/07 06:51:03;;;;;;;12.27;7.15;;;17.70;99.90;;;;;;4997206;28;20037;-80
2023/09/07 06:53:28;;;;;;;10.02;6.45;;;17.80;99.90;;;;;;4980471;28;20042;-80
2023/09/07 06:55:58;;;;;;;9.80;6.88;;;17.90;99.90;;;;;;4981369;28;20096;-80
2023/09/07 06:58:24;;;;;;;10.35;7.03;;;18.00;99.90;;;;;;5014649;28;20424;-80
2023/09/07 07:00:49;;;;;;;10.23;6.93;;;18.10;99.90;;;;;;5014051;28;20034;-80
2023/09/07 07:03:15;;;;;;;10.52;6.90;;;18.10;99.90;;;;;;4995523;28;20044;-80
2023/09/07 07:05:40;;;;;;;9.10;6.85;;;18.20;99.90;;;;;;4997123;28;20491;-80
2023/09/07 07:08:06;;;;;;;10.48;6.95;;;18.30;99.90;;;;;;4978121;28;20030;-80
2023/09/07 07:10:32;;;;;;;10.60;7.43;;;18.30;99.90;;;;;;5012479;28;20096;-80
2023/09/07 07:12:57;;;;;;;9.32;7.30;;;18.40;99.90;;;;;;4979257;28;20052;-80
2023/09/07 07:15:23;;;;;;;9.73;7.35;;;18.60;99.90;;;;;;4980683;28;20108;-81
2023/09/07 07:17:48;;;;;;;11.27;6.97;;;18.70;99.90;;;;;;5013978;28;20406;-80
2023/09/07 07:20:14;;;;;;;13.38;6.72;;;18.70;99.90;;;;;;4997012;28;20117;-80
2023/09/07 07:22:39;;;;;;;11.35;7.25;;;18.90;99.90;;;;;;4995336;28;20073;-80
2023/09/07 07:25:05;;;;;;;11.13;7.88;;;19.10;99.90;;;;;;5014480;28;20030;-80
2023/09/07 07:27:31;;;;;;;12.30;7.47;;;19.10;99.90;;;;;;4996157;28;20042;-81
2023/09/07 07:29:57;;;;;;;11.40;8.18;;;19.20;99.90;;;;;;5012513;28;20164;-81
2023/09/07 07:32:23;;;;;;;12.35;7.45;;;19.30;99.90;;;;;;4995702;28;20113;-80
2023/09/07 07:34:49;;;;;;;13.05;7.88;;;19.40;99.90;;;;;;4994318;28;20057;-81
2023/09/07 07:37:15;;;;;;;12.85;7.90;;;19.40;99.90;;;;;;4995748;28;20041;-81
2023/09/07 07:39:40;;;;;;;10.77;7.97;;;19.50;99.90;;;;;;4974724;28;20042;-81
2023/09/07 07:42:06;;;;;;;13.43;8.55;;;19.60;99.90;;;;;;4996446;28;20052;-81
2023/09/07 07:44:32;;;;;;;10.63;7.28;;;19.70;99.90;;;;;;4995842;28;20034;-81
2023/09/07 07:46:57;;;;;;;9.95;6.95;;;19.80;99.90;;;;;;4980173;28;20052;-81
2023/09/07 07:49:23;;;;;;;9.63;6.97;;;19.90;99.90;;;;;;4977180;28;20513;-80
2023/09/07 07:51:48;;;;;;;11.02;7.45;;;20.00;99.90;;;;;;5013192;28;20038;-80
2023/09/07 07:54:15;;;;;;;9.23;6.80;;;20.10;99.90;;;;;;5009450;28;20108;-81
2023/09/07 07:56:40;;;;;;;11.82;7.65;;;20.30;99.90;;;;;;5013258;28;20077;-81
2023/09/07 07:59:06;;;;;;;10.55;6.82;;;20.50;99.90;;;;;;4996467;28;20463;-81
2023/09/07 08:01:32;;;;;;;9.13;6.60;;;20.50;99.90;;;;;;5012884;28;20046;-80
2023/09/07 08:03:57;;;;;;;11.20;5.78;;;20.60;99.90;;;;;;4979043;28;20088;-81
2023/09/07 08:06:23;;;;;;;11.57;6.82;;;20.70;99.90;;;;;;4995210;28;20049;-80
2023/09/07 08:08:48;;;;;;;8.90;6.13;;;20.80;99.90;;;;;;5014322;28;20041;-80
2023/09/07 08:11:14;;;;;;;11.57;6.55;;;20.90;99.90;;;;;;5011197;28;20504;-81
2023/09/07 08:13:40;;;;;;;12.13;6.85;;;21.00;99.90;;;;;;4995348;28;20406;-80
2023/09/07 08:16:06;;;;;;;11.32;6.53;;;21.10;99.90;;;;;;4994912;28;20050;-81
2023/09/07 08:18:35;;;;;;;10.25;6.60;;;21.10;99.90;;;;;;4994387;28;20049;-81
2023/09/07 08:21:01;;;;;;;8.98;6.28;;;21.30;99.90;;;;;;4994088;28;20034;-81
2023/09/07 08:23:26;;;;;;;9.48;6.78;;;21.40;99.90;;;;;;4995479;28;20502;-81
2023/09/07 08:25:52;;;;;;;9.68;6.57;;;21.40;99.90;;;;;;4995055;28;20049;-81
2023/09/07 08:28:18;;;;;;;9.45;6.40;;;21.50;99.90;;;;;;4995782;28;20034;-81
2023/09/07 08:30:44;;;;;;;10.70;6.07;;;21.50;99.90;;;;;;4994671;28;20044;-81
2023/09/07 08:33:10;;;;;;;10.13;6.05;;;21.70;99.90;;;;;;4994990;28;20045;-81
2023/09/07 08:35:37;;;;;;;8.93;5.57;;;21.70;99.90;;;;;;5012235;28;20452;-81
2023/09/07 08:38:05;;;;;;;8.52;5.75;;;21.80;99.90;;;;;;5013645;28;20053;-81
2023/09/07 08:40:34;;;;;;;8.32;5.05;;;21.90;99.90;;;;;;4985397;28;20064;-82
2023/09/07 08:43:04;;;;;;;10.18;6.43;;;21.90;99.90;;;;;;4994653;28;20045;-82
2023/09/07 08:45:31;;;;;;;9.15;6.00;;;22.00;99.90;;;;;;4978283;28;20048;-82
2023/09/07 08:47:58;;;;;;;11.55;6.10;;;22.10;99.90;;;;;;4979755;28;20042;-82
2023/09/07 08:50:24;;;;;;;8.85;6.07;;;22.30;99.90;;;;;;4992476;28;20505;-81
2023/09/07 08:52:52;;;;;;;9.77;5.30;;;22.20;99.90;;;;;;4994370;28;20490;-81
2023/09/07 08:55:18;;;;;;;9.43;5.75;;;22.30;99.90;;;;;;4992598;28;20139;-81
2023/09/07 08:57:43;;;;;;;9.45;5.60;;;22.40;99.90;;;;;;4992276;28;20046;-82
2023/09/07 09:00:13;;;;;;;8.77;5.40;;;22.50;99.90;;;;;;4995815;28;20065;-82
2023/09/07 09:02:39;;;;;;;8.45;5.63;;;22.60;99.90;;;;;;5011751;28;20049;-82
2023/09/07 09:05:05;;;;;;;7.55;5.13;;;22.70;99.90;;;;;;4995213;28;20417;-82
2023/09/07 09:07:31;;;;;;;8.38;5.30;;;22.80;99.90;;;;;;4994679;28;20042;-82
2023/09/07 09:10:07;;;;;;;9.52;5.40;;;22.90;99.90;;;;;;5010948;28;20410;-82
2023/09/07 09:12:33;;;;;;;9.38;5.43;;;23.00;99.90;;;;;;4995159;28;20482;-82
2023/09/07 09:15:03;;;;;;;8.45;5.55;;;23.10;99.90;;;;;;4991840;28;20034;-82
2023/09/07 09:17:29;;;;;;;9.82;5.57;;;23.30;99.90;;;;;;4991938;28;20125;-81
2023/09/07 09:19:55;;;;;;;8.15;5.00;;;23.40;99.90;;;;;;5011523;28;20049;-81
2023/09/07 09:22:21;;;;;;;8.65;5.05;;;23.50;99.90;;;;;;5011733;28;20046;-80
2023/09/07 09:24:50;;;;;;;10.48;4.60;;;23.60;99.90;;;;;;4995552;28;20038;-81
2023/09/07 09:27:16;;;;;;;8.25;5.07;;;23.70;99.90;;;;;;4993776;28;20465;-81
2023/09/07 09:29:41;;;;;;;8.32;4.97;;;23.80;99.90;;;;;;4991648;28;20069;-81
2023/09/07 09:32:07;;;;;;;7.80;4.65;;;23.90;99.90;;;;;;5009762;28;20038;-81
2023/09/07 09:34:38;;;;;;;8.10;5.03;;;23.90;99.90;;;;;;4994805;28;20132;-81
2023/09/07 09:37:03;;;;;;;8.82;5.50;;;24.00;99.90;;;;;;4992240;28;20057;-82
2023/09/07 09:39:29;;;;;;;10.50;5.20;;;24.10;99.90;;;;;;5010228;28;20410;-83
2023/09/07 09:41:56;;;;;;;9.98;5.50;;;24.20;99.90;;;;;;4996650;28;20042;-83
2023/09/07 09:44:26;;;;;;;8.00;4.72;;;24.30;99.90;;;;;;4981639;28;20042;-81
2023/09/07 09:46:55;;;;;;;9.07;5.10;;;24.40;99.90;;;;;;4997868;28;20046;-82
2023/09/07 09:49:22;;;;;;;8.38;5.00;;;24.40;99.90;;;;;;4998808;28;20081;-82
2023/09/07 09:51:51;;;;;;;7.75;4.70;;;24.50;99.90;;;;;;4997792;28;20030;-82
2023/09/07 09:54:18;;;;;;;8.27;5.05;;;24.60;99.90;;;;;;5015512;28;20147;-82
2023/09/07 09:56:44;;;;;;;7.65;5.07;;;24.60;99.90;;;;;;4998713;28;20045;-82
2023/09/07 09:59:10;;;;;;;8.95;5.50;;;24.60;99.90;;;;;;5016267;28;20041;-82
2023/09/07 10:01:55;;;;;;;9.00;5.50;;;24.70;99.90;;;;;;4996347;28;20172;-82
2023/09/07 10:04:22;;;;;;;7.75;4.90;;;24.80;99.90;;;;;;5013044;28;20033;-82
2023/09/07 10:07:14;;;;;;;9.90;5.18;;;24.90;99.90;;;;;;4982539;28;20041;-83
2023/09/07 10:09:40;;;;;;;7.18;4.80;;;24.90;99.90;;;;;;4992507;28;20042;-83
2023/09/07 10:12:11;;;;;;;9.25;5.05;;;25.00;99.90;;;;;;4998723;28;20041;-82
2023/09/07 10:14:41;;;;;;;7.72;5.00;;;25.00;99.90;;;;;;4996434;28;20034;-83
2023/09/07 10:17:09;;;;;;;9.60;5.10;;;25.10;99.90;;;;;;4995998;28;20056;-82
2023/09/07 10:19:38;;;;;;;11.00;5.30;;;25.20;99.90;;;;;;4998157;28;20042;-83
2023/09/07 10:22:03;;;;;;;10.07;5.30;;;25.20;99.90;;;;;;4996413;28;20046;-81
2023/09/07 10:24:33;;;;;;;13.55;5.55;;;25.30;99.90;;;;;;5013978;28;20554;-82
2023/09/07 10:27:06;;;;;;;10.18;5.00;;;25.40;99.90;;;;;;4995239;28;20065;-81
2023/09/07 10:29:42;;;;;;;8.60;5.38;;;25.40;99.90;;;;;;5015354;28;20533;-82
2023/09/07 10:32:10;;;;;;;9.88;4.78;;;25.50;99.90;;;;;;4995157;28;20084;-85
2023/09/07 10:34:37;;;;;;;9.95;5.13;;;25.50;99.90;;;;;;4999381;28;20120;-84
2023/09/07 10:37:04;;;;;;;8.13;4.80;;;25.60;99.90;;;;;;4978952;28;20139;-85
2023/09/07 10:39:32;;;;;;;9.85;4.85;;;25.60;99.90;;;;;;4978387;28;20046;-83
2023/09/07 10:41:57;;;;;;;10.27;4.85;;;25.70;99.90;;;;;;4982535;28;20046;-82
2023/09/07 10:44:27;;;;;;;8.73;4.72;;;25.80;99.90;;;;;;4997116;28;20153;-83
2023/09/07 10:46:54;;;;;;;8.27;4.85;;;25.80;99.90;;;;;;4990338;28;20388;-84
2023/09/07 10:49:19;;;;;;;9.02;4.95;;;25.90;99.90;;;;;;4995300;28;20050;-85
2023/09/07 10:51:46;;;;;;;6.70;4.07;;;25.90;99.90;;;;;;4961553;28;20584;-84
2023/09/07 10:54:16;;;;;;;8.77;4.97;;;26.00;99.90;;;;;;5013573;28;20130;-83
2023/09/07 10:56:46;;;;;;;9.32;5.30;;;26.10;99.90;;;;;;4994397;28;20153;-83
2023/09/07 10:59:15;;;;;;;8.90;5.07;;;26.00;99.90;;;;;;5006079;28;20042;-84
2023/09/07 11:01:43;;;;;;;9.02;4.72;;;26.10;99.90;;;;;;4981734;28;20034;-84
2023/09/07 11:04:11;;;;;;;8.50;5.03;;;26.10;99.90;;;;;;4990767;28;20052;-83
2023/09/07 11:06:38;;;;;;;10.00;4.88;;;26.20;99.90;;;;;;4998046;28;20474;-83
2023/09/07 11:09:04;;;;;;;9.80;4.47;;;26.10;99.90;;;;;;4990510;28;20430;-83
2023/09/07 11:11:33;;;;;;;7.30;4.35;;;26.20;99.90;;;;;;4997920;28;20053;-84
2023/09/07 11:13:59;;;;;;;10.90;4.13;;;26.30;99.90;;;;;;4974603;28;20049;-83
2023/09/07 11:16:26;;;;;;;9.32;4.57;;;26.30;99.90;;;;;;4988508;28;20420;-83
2023/09/07 11:18:54;;;;;;;7.15;4.45;;;26.40;99.90;;;;;;4997621;28;20506;-82
2023/09/07 11:21:20;;;;;;;7.55;4.05;;;26.40;99.90;;;;;;4990308;28;20412;-84
2023/09/07 11:23:46;;;;;;;9.90;4.10;;;26.40;99.90;;;;;;5015072;28;20490;-83
2023/09/07 11:26:11;;;;;;;9.13;4.05;;;26.50;99.90;;;;;;4989898;28;20042;-83
2023/09/07 11:28:38;;;;;;;7.97;4.18;;;26.50;99.90;;;;;;5013463;28;20044;-84
2023/09/07 11:31:03;;;;;;;7.70;4.28;;;26.60;99.90;;;;;;4992575;28;20502;-82
2023/09/07 11:33:32;;;;;;;7.72;3.95;;;26.70;99.90;;;;;;4994468;28;20054;-82
2023/09/07 11:35:58;;;;;;;9.07;4.00;;;26.70;99.90;;;;;;4990947;28;20497;-83
2023/09/07 11:38:29;;;;;;;6.90;3.80;;;26.70;99.90;;;;;;5007400;28;20050;-85
2023/09/07 11:40:55;;;;;;;7.15;3.60;;;26.80;99.90;;;;;;4980686;28;20402;-84
2023/09/07 11:43:20;;;;;;;6.47;3.85;;;26.80;99.90;;;;;;4987171;28;20038;-85
2023/09/07 11:45:46;;;;;;;8.05;3.95;;;26.80;99.90;;;;;;4976321;28;20047;-85
2023/09/07 11:48:12;;;;;;;6.97;3.88;;;26.80;99.90;;;;;;4968334;28;20034;-84
2023/09/07 11:50:38;;;;;;;7.18;4.15;;;26.90;99.90;;;;;;4994642;28;20033;-84
2023/09/07 11:53:05;;;;;;;8.10;4.10;;;26.90;99.90;;;;;;4991989;28;20112;-83
2023/09/07 11:55:31;;;;;;;6.35;3.63;;;27.00;99.90;;;;;;5009969;28;20080;-83
2023/09/07 11:57:57;;;;;;;7.18;3.92;;;27.00;99.50;;;;;;4978617;28;20109;-83
2023/09/07 12:00:23;;;;;;;6.47;3.60;;;27.10;99.90;;;;;;5009715;28;20085;-83
2023/09/07 12:02:49;;;;;;;7.50;4.10;;;27.10;99.90;;;;;;5001005;28;20450;-83
2023/09/07 12:05:15;;;;;;;6.80;3.83;;;27.10;99.90;;;;;;5005789;28;20069;-83
2023/09/07 12:07:43;;;;;;;7.70;4.30;;;27.10;99.90;;;;;;5013277;28;20080;-84
2023/09/07 12:10:13;;;;;;;7.70;4.22;;;27.30;99.90;;;;;;4995591;28;20037;-85
2023/09/07 12:12:41;;;;;;;6.90;4.05;;;27.20;99.90;;;;;;4992308;28;20052;-85
2023/09/07 12:15:08;;;;;;;6.75;3.65;;;27.30;99.90;;;;;;4995193;28;20038;-85
2023/09/07 12:17:34;;;;;;;7.57;4.35;;;27.30;99.90;;;;;;5010670;28;20045;-83
2023/09/07 12:20:00;;;;;;;6.72;3.85;;;27.20;99.90;;;;;;5001226;28;20399;-81
2023/09/07 12:22:27;;;;;;;9.27;4.30;;;27.20;99.90;;;;;;5012860;28;20046;-81
2023/09/07 12:24:53;;;;;;;7.32;3.80;;;27.30;99.90;;;;;;4995410;28;20248;-81
2023/09/07 12:27:19;;;;;;;7.28;4.18;;;27.30;99.90;;;;;;4994545;28;20049;-81
2023/09/07 12:29:45;;;;;;;7.72;4.30;;;27.30;99.90;;;;;;4995112;28;20041;-80
2023/09/07 12:32:11;;;;;;;8.68;4.03;;;27.30;99.90;;;;;;4988643;28;20038;-81
2023/09/07 12:34:36;;;;;;;6.90;4.30;;;27.40;99.90;;;;;;4946630;28;1046553;-80
2023/09/07 12:37:05;;;;;;;8.27;4.38;;;27.40;99.90;;;;;;4995633;28;20542;-81
2023/09/07 12:39:31;;;;;;;7.05;4.03;;;27.40;99.90;;;;;;4993235;28;20037;-80
2023/09/07 12:41:56;;;;;;;7.57;4.40;;;27.40;99.90;;;;;;4976213;28;20416;-81